Time;durP1;ratioP1;P1;durP2;ratioP2;P2;SDS_P1;SDS_P2;PMS_P1;PMS_P2;Temp;Humidity;BMP_temperature;BMP_pressure;BME280_temperature;BME280_humidity;BME280_pressure;Samples;Min_cycle;Max_cycle;Signal;HPM_P1;HPM_P2
2023/09/04 00:01:20;;;;;;;;;14.75;14.00;;;;;23.64;63.31;99717.75;5076016;28;46463;-70
2023/09/04 00:03:46;;;;;;;;;12.50;12.50;;;;;23.61;63.68;99729.66;5074451;28;45453;-70
2023/09/04 00:06:11;;;;;;;;;14.75;14.75;;;;;23.57;63.63;99725.50;5076464;28;45585;-70
2023/09/04 00:08:37;;;;;;;;;17.75;16.75;;;;;23.56;63.75;99731.03;5074559;28;45343;-70
2023/09/04 00:11:02;;;;;;;;;15.25;15.25;;;;;23.52;63.90;99727.72;5076280;28;46503;-70
2023/09/04 00:13:28;;;;;;;;;15.75;13.25;;;;;23.50;63.91;99732.34;5076207;28;45402;-70
2023/09/04 00:15:56;;;;;;;;;14.25;13.50;;;;;23.48;64.07;99725.38;5076034;28;45435;-70
2023/09/04 00:18:22;;;;;;;;;10.00;10.00;;;;;23.42;64.34;99726.78;5076145;28;45325;-70
2023/09/04 00:20:48;;;;;;;;;13.25;12.25;;;;;23.40;64.79;99725.19;5076414;28;46120;-70
2023/09/04 00:23:14;;;;;;;;;16.80;13.80;;;;;23.37;64.88;99733.50;5091881;27;45329;-70
2023/09/04 00:25:39;;;;;;;;;15.25;11.00;;;;;23.33;64.90;99727.50;5076170;28;45344;-70
2023/09/04 00:28:05;;;;;;;;;12.50;11.75;;;;;23.31;64.75;99724.09;5076055;28;45618;-70
2023/09/04 00:30:31;;;;;;;;;8.50;8.00;;;;;23.28;64.82;99721.69;5074530;28;45407;-70
2023/09/04 00:32:56;;;;;;;;;13.40;13.00;;;;;23.23;64.96;99730.13;5076061;28;45550;-70
2023/09/04 00:35:22;;;;;;;;;10.50;10.50;;;;;23.21;65.42;99732.09;5076032;28;45380;-71
2023/09/04 00:37:48;;;;;;;;;13.75;13.75;;;;;23.16;65.25;99730.75;5075535;28;45443;-70
2023/09/04 00:40:13;;;;;;;;;16.00;12.25;;;;;23.12;65.44;99730.16;5075534;28;46101;-70
2023/09/04 00:42:39;;;;;;;;;10.50;10.25;;;;;23.08;65.60;99731.41;5075934;28;45463;-70
2023/09/04 00:45:06;;;;;;;;;14.00;12.25;;;;;23.04;65.41;99724.53;5074527;28;45521;-70
2023/09/04 00:47:32;;;;;;;;;14.75;13.75;;;;;23.01;65.67;99729.31;5076001;28;45348;-70
2023/09/04 00:49:58;;;;;;;;;13.50;13.50;;;;;22.97;65.55;99731.41;5075439;28;45410;-70
2023/09/04 00:52:25;;;;;;;;;17.20;15.60;;;;;22.95;66.27;99726.16;5075200;28;45376;-70
2023/09/04 00:54:51;;;;;;;;;13.25;12.75;;;;;22.92;66.13;99722.88;5075387;28;45556;-70
2023/09/04 00:57:18;;;;;;;;;16.00;14.25;;;;;22.88;66.25;99719.56;5074415;28;45499;-71
2023/09/04 00:59:45;;;;;;;;;14.80;13.00;;;;;22.87;66.27;99720.53;5075665;28;46448;-70
2023/09/04 01:02:13;;;;;;;;;15.60;15.40;;;;;22.86;66.34;99726.91;5075716;28;45340;-70
2023/09/04 01:04:39;;;;;;;;;13.20;13.20;;;;;22.85;66.68;99721.66;5075730;28;45426;-70
2023/09/04 01:07:04;;;;;;;;;15.25;14.25;;;;;22.84;66.55;99722.63;5074295;28;45378;-70
2023/09/04 01:09:30;;;;;;;;;15.25;12.75;;;;;22.82;66.61;99721.88;5073812;28;46701;-70
2023/09/04 01:12:01;;;;;;;;;13.50;13.50;;;;;22.81;66.71;99723.72;5091059;27;45410;-70
2023/09/04 01:14:28;;;;;;;;;15.25;15.25;;;;;22.80;66.91;99710.41;5074370;28;45387;-71
2023/09/04 01:16:55;;;;;;;;;15.00;15.00;;;;;22.77;66.97;99711.53;5075510;28;45366;-71
2023/09/04 01:19:21;;;;;;;;;17.25;16.00;;;;;22.75;67.36;99713.44;5074854;28;46047;-71
2023/09/04 01:21:46;;;;;;;;;14.00;12.25;;;;;22.74;67.22;99718.94;5075283;28;45465;-70
2023/09/04 01:24:12;;;;;;;;;13.25;12.00;;;;;22.71;67.58;99720.03;5074766;28;45455;-70
2023/09/04 01:26:55;;;;;;;;;15.25;15.25;;;;;22.70;67.39;99712.09;5074128;28;45560;-69
2023/09/04 01:29:30;;;;;;;;;12.60;11.40;;;;;22.69;67.50;99718.47;5075458;28;46298;-71
2023/09/04 01:32:15;;;;;;;;;18.00;15.20;;;;;22.67;67.68;99720.41;5073500;28;45602;-70
2023/09/04 01:34:49;;;;;;;;;15.00;15.00;;;;;22.66;67.39;99716.88;5075525;28;45426;-70
2023/09/04 01:37:16;;;;;;;;;13.25;13.25;;;;;22.65;67.48;99717.84;5090504;27;45367;-70
2023/09/04 01:39:43;;;;;;;;;12.25;11.50;;;;;22.63;67.39;99720.66;5074706;28;45881;-70
2023/09/04 01:42:08;;;;;;;;;13.00;12.40;;;;;22.61;67.83;99717.25;5075078;28;45383;-71
2023/09/04 01:44:34;;;;;;;;;11.75;10.25;;;;;22.59;67.57;99713.84;5074638;27;45371;-70
2023/09/04 01:47:00;;;;;;;;;12.75;12.75;;;;;22.58;67.49;99709.44;5074976;28;45380;-70
2023/09/04 01:49:25;;;;;;;;;13.50;13.50;;;;;22.57;67.68;99706.88;5074978;28;45472;-71
2023/09/04 01:51:52;;;;;;;;;17.50;13.75;;;;;22.54;67.69;99696.34;5075027;28;45392;-71
2023/09/04 01:54:17;;;;;;;;;13.00;11.25;;;;;22.50;68.44;99695.75;5074698;28;45479;-70
2023/09/04 01:56:43;;;;;;;;;13.75;13.75;;;;;22.47;68.23;99697.81;5074491;28;45479;-70
2023/09/04 01:59:08;;;;;;;;;12.00;11.00;;;;;22.43;68.47;99702.59;5074768;28;45750;-70
2023/09/04 02:01:35;;;;;;;;;13.00;13.00;;;;;22.41;68.59;99698.31;5074678;28;45405;-69
2023/09/04 02:04:00;;;;;;;;;10.00;10.00;;;;;22.37;68.12;99695.00;5075033;28;45458;-70
2023/09/04 02:06:28;;;;;;;;;12.50;12.50;;;;;22.36;68.54;99692.44;5074798;28;45418;-70
2023/09/04 02:08:53;;;;;;;;;10.20;10.20;;;;;22.32;68.69;99697.22;5074403;28;46540;-69
2023/09/04 02:11:18;;;;;;;;;12.75;11.25;;;;;22.29;68.47;99689.38;5074814;28;45446;-71
2023/09/04 02:13:47;;;;;;;;;15.50;11.75;;;;;22.27;69.04;99688.69;5074750;28;45766;-70
2023/09/04 02:16:13;;;;;;;;;10.00;9.00;;;;;22.25;68.71;99694.16;5074231;28;45407;-69
2023/09/04 02:18:39;;;;;;;;;10.75;10.75;;;;;22.23;68.86;99688.06;5074187;28;45474;-70
2023/09/04 02:21:05;;;;;;;;;11.25;11.25;;;;;22.19;68.91;99681.22;5074214;28;45404;-71
2023/09/04 02:23:30;;;;;;;;;14.75;12.50;;;;;22.18;69.34;99681.31;5073852;28;45439;-70
2023/09/04 02:25:56;;;;;;;;;11.00;11.00;;;;;22.15;69.35;99674.38;5074199;28;45347;-70
2023/09/04 02:28:22;;;;;;;;;12.00;11.00;;;;;22.13;69.21;99680.81;5074390;28;45413;-70
2023/09/04 02:30:47;;;;;;;;;13.75;12.00;;;;;22.10;69.54;99681.94;5074411;28;45424;-70
2023/09/04 02:33:13;;;;;;;;;11.75;11.00;;;;;22.06;69.33;99677.78;5074637;28;45602;-69
2023/09/04 02:35:38;;;;;;;;;12.00;12.00;;;;;22.04;69.71;99679.75;5074136;28;45632;-69
2023/09/04 02:38:04;;;;;;;;;15.00;12.50;;;;;22.01;69.46;99679.97;5074296;28;46321;-70
2023/09/04 02:40:29;;;;;;;;;11.00;11.00;;;;;22.00;70.10;99677.41;5073898;28;45478;-70
2023/09/04 02:42:54;;;;;;;;;10.00;8.00;;;;;21.97;69.55;99673.09;5074378;28;45412;-70
2023/09/04 02:45:20;;;;;;;;;12.75;12.00;;;;;21.97;70.04;99682.97;5074461;28;45289;-70
2023/09/04 02:47:46;;;;;;;;;12.75;11.25;;;;;21.93;70.41;99671.66;5073956;28;46399;-70
2023/09/04 02:50:12;;;;;;;;;11.50;10.75;;;;;21.90;70.05;99674.56;5073988;28;45542;-70
2023/09/04 02:52:37;;;;;;;;;13.75;12.00;;;;;21.87;70.07;99677.47;5074372;28;45361;-70
2023/09/04 02:55:04;;;;;;;;;14.25;11.50;;;;;21.85;70.15;99671.38;5073439;28;45477;-70
2023/09/04 02:57:31;;;;;;;;;14.25;13.00;;;;;21.83;70.28;99674.16;5075219;28;46212;-70
2023/09/04 02:59:58;;;;;;;;;13.40;11.00;;;;;21.81;70.70;99667.22;5077127;28;45466;-70
2023/09/04 03:02:23;;;;;;;;;13.75;10.75;;;;;21.77;70.48;99669.28;5077401;28;45423;-70
2023/09/04 03:04:56;;;;;;;;;11.25;11.25;;;;;21.75;70.73;99670.38;5077371;28;45400;-72
2023/09/04 03:07:22;;;;;;;;;8.00;8.00;;;;;21.73;70.63;99666.97;5077014;27;46314;-72
2023/09/04 03:09:48;;;;;;;;;12.80;12.40;;;;;21.71;70.53;99666.22;5076721;28;45435;-70
2023/09/04 03:12:13;;;;;;;;;11.75;11.75;;;;;21.69;70.88;99671.69;5077365;28;45413;-70
2023/09/04 03:14:39;;;;;;;;;13.50;12.00;;;;;21.69;71.03;99670.84;5077469;28;45437;-70
2023/09/04 03:17:05;;;;;;;;;13.50;11.00;;;;;21.66;70.88;99671.06;5077137;28;46391;-70
2023/09/04 03:19:30;;;;;;;;;14.75;13.25;;;;;21.66;71.22;99671.06;5077205;28;45396;-70
2023/09/04 03:21:55;;;;;;;;;13.75;11.00;;;;;21.64;71.20;99670.34;5076792;28;45972;-70
2023/09/04 03:24:23;;;;;;;;;11.75;10.00;;;;;21.62;70.88;99675.81;5076168;28;45478;-71
2023/09/04 03:26:49;;;;;;;;;15.80;14.00;;;;;21.62;71.22;99680.38;5076298;28;45674;-69
2023/09/04 03:29:15;;;;;;;;;13.20;12.80;;;;;21.60;70.83;99680.47;5076808;28;45373;-69
2023/09/04 03:31:41;;;;;;;;;11.75;11.00;;;;;21.58;71.04;99679.72;5077263;28;45936;-69
2023/09/04 03:34:07;;;;;;;;;11.25;10.25;;;;;21.56;71.44;99681.69;5076890;28;45394;-70
2023/09/04 03:36:32;;;;;;;;;13.50;12.75;;;;;21.55;71.25;99679.97;5076842;28;45423;-69
2023/09/04 03:38:57;;;;;;;;;12.00;11.00;;;;;21.54;71.33;99680.94;5076420;28;45415;-70
2023/09/04 03:41:24;;;;;;;;;11.75;11.75;;;;;21.52;71.35;99681.03;5076479;28;45438;-69
2023/09/04 03:43:50;;;;;;;;;13.25;13.25;;;;;21.49;71.85;99675.91;5075130;28;45416;-69
2023/09/04 03:46:15;;;;;;;;;13.75;13.00;;;;;21.47;72.14;99671.63;5076654;28;46208;-69
2023/09/04 03:48:40;;;;;;;;;14.75;12.75;;;;;21.46;71.82;99678.81;5075945;28;45301;-69
2023/09/04 03:51:06;;;;;;;;;14.25;13.50;;;;;21.46;71.85;99686.00;5076344;28;45372;-69
2023/09/04 03:53:31;;;;;;;;;15.00;13.00;;;;;21.46;72.07;99681.50;5076258;28;45321;-69
2023/09/04 03:56:06;;;;;;;;;14.00;14.00;;;;;21.47;72.24;99683.22;5076482;28;46087;-69
2023/09/04 03:58:31;;;;;;;;;15.80;14.00;;;;;21.47;72.20;99687.72;5076380;28;45391;-69
2023/09/04 04:00:57;;;;;;;;;14.00;13.25;;;;;21.46;72.26;99678.81;5076767;28;45507;-70
2023/09/04 04:03:23;;;;;;;;;14.25;13.75;;;;;21.44;72.57;99678.09;5076200;28;45346;-69
2023/09/04 04:05:49;;;;;;;;;14.00;11.75;;;;;21.44;72.24;99686.16;5076325;28;45391;-69
2023/09/04 04:08:14;;;;;;;;;12.25;12.00;;;;;21.42;72.81;99676.50;5075577;28;45332;-69
2023/09/04 04:10:39;;;;;;;;;13.25;13.00;;;;;21.41;72.39;99683.69;5076038;27;45366;-70
2023/09/04 04:13:05;;;;;;;;;14.25;14.25;;;;;21.42;72.23;99685.41;5075630;27;45601;-69
2023/09/04 04:15:30;;;;;;;;;15.00;14.00;;;;;21.42;72.47;99685.41;5091290;27;45744;-69
2023/09/04 04:17:55;;;;;;;;;13.00;12.00;;;;;21.40;72.52;99690.03;5075707;28;45402;-69
2023/09/04 04:20:22;;;;;;;;;12.00;11.00;;;;;21.38;72.43;99693.78;5076030;28;45528;-69
2023/09/04 04:22:47;;;;;;;;;18.75;16.50;;;;;21.36;72.89;99693.06;5075821;28;45409;-69
2023/09/04 04:25:13;;;;;;;;;15.00;12.25;;;;;21.34;72.88;99692.31;5075355;27;45577;-69
2023/09/04 04:27:39;;;;;;;;;15.25;13.00;;;;;21.33;73.09;99698.66;5075986;28;45406;-69
2023/09/04 04:30:05;;;;;;;;;19.50;19.25;;;;;21.31;72.62;99689.84;5074586;28;45457;-69
2023/09/04 04:32:30;;;;;;;;;19.50;18.50;;;;;21.27;72.93;99689.25;5075862;28;45403;-69
2023/09/04 04:34:55;;;;;;;;;15.75;14.75;;;;;21.26;72.84;99692.06;5076080;28;45442;-69
2023/09/04 04:37:21;;;;;;;;;13.50;12.50;;;;;21.24;73.64;99692.16;5075712;27;45297;-69
2023/09/04 04:39:46;;;;;;;;;11.00;10.50;;;;;21.21;73.49;99697.75;5075688;28;45907;-69
2023/09/04 04:42:12;;;;;;;;;11.25;11.25;;;;;21.19;73.30;99697.84;5075565;28;45412;-69
2023/09/04 04:44:37;;;;;;;;;20.50;16.00;;;;;21.16;73.43;99698.03;5075607;28;45478;-69
2023/09/04 04:47:02;;;;;;;;;14.00;13.50;;;;;21.14;73.60;99701.81;5075299;27;45390;-70
2023/09/04 04:49:28;;;;;;;;;13.50;13.50;;;;;21.11;73.68;99694.88;5074867;27;45378;-71
2023/09/04 04:51:54;;;;;;;;;17.75;16.25;;;;;21.11;73.60;99700.25;5074861;28;45382;-71
2023/09/04 04:54:20;;;;;;;;;12.50;12.25;;;;;21.08;73.58;99700.47;5074519;27;45597;-71
2023/09/04 04:56:49;;;;;;;;;14.25;12.50;;;;;21.07;73.85;99701.44;5073891;28;45433;-71
2023/09/04 04:59:15;;;;;;;;;12.00;11.75;;;;;21.08;73.85;99708.50;5090795;27;45477;-69
2023/09/04 05:01:41;;;;;;;;;15.25;14.75;;;;;21.06;73.73;99707.75;5074715;28;45349;-69
2023/09/04 05:04:07;;;;;;;;;12.25;12.25;;;;;21.05;73.64;99706.03;5075130;27;46402;-71
2023/09/04 05:06:33;;;;;;;;;13.00;13.00;;;;;21.06;73.46;99705.06;5075387;27;45281;-69
2023/09/04 05:08:58;;;;;;;;;14.25;14.00;;;;;21.05;73.52;99710.56;5073703;28;45405;-69
2023/09/04 05:11:24;;;;;;;;;15.75;15.00;;;;;21.05;73.81;99713.22;5074985;27;45338;-71
2023/09/04 05:13:49;;;;;;;;;14.25;13.50;;;;;21.03;73.88;99715.16;5074781;27;45308;-71
2023/09/04 05:16:14;;;;;;;;;11.50;11.50;;;;;21.01;73.65;99722.47;5074973;28;45405;-69
2023/09/04 05:18:40;;;;;;;;;15.50;15.00;;;;;21.00;74.00;99721.59;5075076;28;45430;-71
2023/09/04 05:21:09;;;;;;;;;13.00;13.00;;;;;21.00;74.57;99718.06;5073730;28;45381;-69
2023/09/04 05:23:34;;;;;;;;;14.50;13.75;;;;;21.02;74.43;99726.84;5074018;27;46288;-69
2023/09/04 05:26:00;;;;;;;;;14.00;13.75;;;;;21.03;74.41;99740.16;5075179;28;45524;-69
2023/09/04 05:28:25;;;;;;;;;15.75;12.50;;;;;21.04;74.49;99727.59;5073599;28;45501;-69
2023/09/04 05:30:51;;;;;;;;;10.00;9.25;;;;;21.03;74.60;99737.47;5074938;27;45462;-70
2023/09/04 05:33:16;;;;;;;;;13.00;13.00;;;;;21.01;74.42;99736.72;5074497;28;45336;-71
2023/09/04 05:35:42;;;;;;;;;14.75;13.00;;;;;21.00;74.74;99739.50;5073776;28;45364;-69
2023/09/04 05:38:08;;;;;;;;;16.00;16.00;;;;;21.00;74.78;99743.06;5074132;28;45482;-69
2023/09/04 05:40:33;;;;;;;;;16.75;15.75;;;;;21.02;74.21;99745.63;5090167;27;45856;-69
2023/09/04 05:42:59;;;;;;;;;17.00;15.75;;;;;21.01;74.65;99739.41;5072529;28;48239;-71
2023/09/04 05:45:24;;;;;;;;;14.75;12.00;;;;;21.03;74.70;99744.66;5073750;28;45363;-70
2023/09/04 05:47:50;;;;;;;;;15.75;15.50;;;;;21.04;74.64;99741.00;5074142;28;45368;-70
2023/09/04 05:50:16;;;;;;;;;17.00;14.25;;;;;21.05;74.62;99748.94;5089632;27;45348;-69
2023/09/04 05:52:41;;;;;;;;;17.25;14.50;;;;;21.06;74.87;99750.66;5074243;28;45541;-70
2023/09/04 05:55:08;;;;;;;;;20.25;18.75;;;;;21.06;74.64;99750.66;5073910;28;45395;-71
2023/09/04 05:57:35;;;;;;;;;16.50;16.50;;;;;21.08;74.27;99750.53;5074185;28;45455;-70
2023/09/04 06:00:02;;;;;;;;;14.00;14.00;;;;;21.11;74.45;99747.66;5074010;28;45435;-70
2023/09/04 06:02:28;;;;;;;;;14.25;14.25;;;;;21.14;73.98;99755.44;5072180;28;48116;-70
2023/09/04 06:04:53;;;;;;;;;17.00;14.50;;;;;21.16;74.18;99753.50;5073429;28;45390;-71
2023/09/04 06:07:19;;;;;;;;;11.25;11.25;;;;;21.18;74.37;99751.56;5073670;28;45480;-70
2023/09/04 06:09:44;;;;;;;;;18.25;18.00;;;;;21.19;74.01;99753.28;5073225;28;45490;-71
2023/09/04 06:12:11;;;;;;;;;11.75;10.25;;;;;21.20;73.72;99755.88;5073628;28;45939;-70
2023/09/04 06:14:37;;;;;;;;;14.60;14.20;;;;;21.23;74.27;99758.34;5074093;27;45642;-71
2023/09/04 06:17:03;;;;;;;;;15.00;15.00;;;;;21.26;74.47;99768.00;5074489;28;45400;-70
2023/09/04 06:19:29;;;;;;;;;12.00;12.00;;;;;21.30;73.96;99760.56;5073680;28;45448;-70
2023/09/04 06:21:54;;;;;;;;;13.75;13.00;;;;;21.33;74.02;99754.97;5072099;28;46723;-70
2023/09/04 06:24:20;;;;;;;;;12.50;11.75;;;;;21.36;73.88;99755.59;5071958;28;45905;-71
2023/09/04 06:26:46;;;;;;;;;19.50;16.75;;;;;21.39;74.28;99760.75;5073615;28;45469;-70
2023/09/04 06:29:11;;;;;;;;;16.00;14.50;;;;;21.42;73.73;99759.66;5073401;28;45553;-71
2023/09/04 06:31:37;;;;;;;;;16.00;14.75;;;;;21.48;73.81;99761.88;5073267;28;46647;-72
2023/09/04 06:34:03;;;;;;;;;15.00;14.00;;;;;21.52;74.02;99760.69;5075985;28;45416;-72
2023/09/04 06:36:29;;;;;;;;;19.25;15.75;;;;;21.56;74.01;99762.19;5076437;28;45368;-70
2023/09/04 06:38:55;;;;;;;;;14.25;11.00;;;;;21.62;74.05;99764.38;5076067;28;45334;-70
2023/09/04 06:41:21;;;;;;;;;12.50;12.50;;;;;21.67;73.27;99769.41;5076892;28;46224;-70
2023/09/04 06:43:47;;;;;;;;;17.60;16.00;;;;;21.71;73.34;99763.69;5075409;28;45495;-70
2023/09/04 06:46:12;;;;;;;;;15.50;14.75;;;;;21.74;73.20;99763.47;5077006;28;45436;-70
2023/09/04 06:48:38;;;;;;;;;17.00;17.00;;;;;21.79;73.50;99766.63;5076671;28;45404;-70
2023/09/04 06:51:04;;;;;;;;;17.25;15.75;;;;;21.83;72.80;99765.44;5076361;28;46264;-70
2023/09/04 06:53:29;;;;;;;;;17.75;16.50;;;;;21.88;73.34;99768.63;5076294;28;45449;-70
2023/09/04 06:55:55;;;;;;;;;22.50;20.00;;;;;21.91;73.25;99764.88;5077238;28;45541;-70
2023/09/04 06:58:20;;;;;;;;;11.25;10.25;;;;;21.96;72.73;99768.03;5076693;28;45575;-72
2023/09/04 07:00:46;;;;;;;;;18.75;16.00;;;;;22.01;72.49;99765.03;5076813;28;45436;-70
2023/09/04 07:03:11;;;;;;;;;14.00;13.25;;;;;22.05;72.42;99764.69;5077084;28;45400;-70
2023/09/04 07:05:36;;;;;;;;;14.75;12.75;;;;;22.12;71.87;99765.09;5077159;28;45305;-70
2023/09/04 07:08:04;;;;;;;;;13.50;11.75;;;;;22.18;71.85;99769.97;5074610;28;45521;-70
2023/09/04 07:10:30;;;;;;;;;14.25;13.00;;;;;22.22;71.02;99768.75;5076465;27;45558;-70
2023/09/04 07:12:55;;;;;;;;;13.00;12.00;;;;;22.27;71.04;99769.28;5076536;28;45445;-70
2023/09/04 07:15:21;;;;;;;;;15.50;13.75;;;;;22.33;70.54;99773.28;5076855;28;45701;-70
2023/09/04 07:17:46;;;;;;;;;13.75;13.75;;;;;22.38;70.41;99773.78;5076683;28;45510;-70
2023/09/04 07:20:11;;;;;;;;;16.75;14.25;;;;;22.42;70.67;99773.44;5077100;27;46252;-70
2023/09/04 07:22:37;;;;;;;;;13.00;12.25;;;;;22.50;70.34;99775.50;5076820;28;45396;-70
2023/09/04 07:25:04;;;;;;;;;13.75;13.50;;;;;22.55;70.51;99768.81;5076504;28;45426;-71
2023/09/04 07:27:29;;;;;;;;;14.50;14.50;;;;;22.61;69.56;99767.47;5076416;27;45375;-71
2023/09/04 07:29:55;;;;;;;;;13.50;13.50;;;;;22.65;69.75;99766.22;5076508;28;45502;-71
2023/09/04 07:32:21;;;;;;;;;12.75;10.25;;;;;22.71;69.71;99770.25;5075849;27;45410;-71
2023/09/04 07:34:46;;;;;;;;;15.00;14.75;;;;;22.76;69.50;99763.56;5074853;28;45409;-71
2023/09/04 07:37:12;;;;;;;;;16.25;14.50;;;;;22.81;69.50;99766.75;5076261;28;45447;-71
2023/09/04 07:39:37;;;;;;;;;15.25;13.50;;;;;22.88;69.31;99764.44;5074128;28;47420;-69
2023/09/04 07:42:03;;;;;;;;;14.50;14.00;;;;;22.93;68.77;99762.22;5075608;28;45308;-70
2023/09/04 07:44:28;;;;;;;;;15.00;13.00;;;;;22.99;68.77;99756.34;5075628;28;45372;-69
2023/09/04 07:46:54;;;;;;;;;14.50;14.00;;;;;23.04;68.11;99759.50;5076082;28;45508;-71
2023/09/04 07:49:19;;;;;;;;;12.00;11.50;;;;;;;;5075486;28;45395;-70
2023/09/04 07:51:44;;;;;;;;;14.25;13.00;;;;;23.15;67.79;99764.00;5076034;28;45403;-69
2023/09/04 07:54:11;;;;;;;;;12.75;12.00;;;;;23.16;67.81;99755.81;5075975;28;45404;-71
2023/09/04 07:56:37;;;;;;;;;18.50;18.50;;;;;23.25;67.36;99762.28;5076367;27;45396;-70
2023/09/04 07:59:04;;;;;;;;;13.60;12.80;;;;;23.28;66.77;99753.97;5076087;28;45502;-71
2023/09/04 08:01:30;;;;;;;;;14.20;13.80;;;;;23.31;67.12;99749.16;5076349;28;45415;-71
2023/09/04 08:03:56;;;;;;;;;15.20;13.20;;;;;23.38;66.87;99748.66;5076169;28;45464;-71
2023/09/04 08:06:22;;;;;;;;;17.50;16.75;;;;;23.42;65.93;99742.91;5074184;28;45524;-70
2023/09/04 08:08:47;;;;;;;;;16.00;16.00;;;;;23.47;66.06;99734.44;5075326;27;46091;-69
2023/09/04 08:11:12;;;;;;;;;14.75;13.75;;;;;23.54;65.75;99739.22;5075159;28;45548;-71
2023/09/04 08:13:38;;;;;;;;;16.75;14.75;;;;;23.60;65.65;99738.72;5074457;28;45382;-69
2023/09/04 08:16:03;;;;;;;;;14.25;13.75;;;;;23.65;65.29;99731.09;5075332;28;45325;-71
2023/09/04 08:18:29;;;;;;;;;14.50;12.75;;;;;23.71;64.91;99729.72;5076019;28;46559;-69
2023/09/04 08:20:54;;;;;;;;;13.75;13.75;;;;;23.78;65.21;99732.78;5076345;28;45391;-70
2023/09/04 08:23:20;;;;;;;;;13.50;12.50;;;;;23.82;65.03;99729.66;5075367;28;45313;-71
2023/09/04 08:25:45;;;;;;;;;17.00;14.00;;;;;23.88;65.00;99726.44;5075636;27;45391;-72
2023/09/04 08:28:10;;;;;;;;;12.00;11.00;;;;;23.93;64.40;99726.06;5075615;28;45534;-71
2023/09/04 08:30:36;;;;;;;;;19.25;14.25;;;;;23.98;64.35;99723.81;5073797;28;45467;-70
2023/09/04 08:33:02;;;;;;;;;14.75;14.75;;;;;24.04;64.41;99726.00;5074205;28;45567;-70
2023/09/04 08:35:29;;;;;;;;;13.00;11.75;;;;;24.10;64.16;99720.09;5074747;27;45470;-70
2023/09/04 08:37:55;;;;;;;;;16.80;14.60;;;;;24.17;63.53;99726.63;5074827;28;46515;-70
2023/09/04 08:40:20;;;;;;;;;14.75;13.75;;;;;24.22;63.45;99727.09;5075624;28;45408;-70
2023/09/04 08:42:49;;;;;;;;;16.50;12.25;;;;;24.30;63.40;99727.31;5075193;28;45368;-70
2023/09/04 08:45:18;;;;;;;;;12.50;12.50;;;;;24.36;63.14;99723.22;5075046;28;45534;-70
2023/09/04 08:47:43;;;;;;;;;12.00;12.00;;;;;24.42;62.86;99728.09;5075263;28;45428;-70
2023/09/04 08:50:11;;;;;;;;;12.25;12.25;;;;;24.47;62.99;99722.28;5074948;28;45458;-72
2023/09/04 08:52:37;;;;;;;;;15.20;14.40;;;;;24.54;62.52;99720.75;5075204;28;45534;-70
2023/09/04 08:55:06;;;;;;;;;13.50;13.50;;;;;24.59;62.38;99722.06;5073317;28;45344;-70
2023/09/04 08:57:35;;;;;;;;;13.40;13.40;;;;;24.64;62.26;99721.63;5074758;28;45623;-70
2023/09/04 09:00:01;;;;;;;;;13.80;13.40;;;;;24.69;62.24;99730.19;5090606;27;45487;-70
2023/09/04 09:02:29;;;;;;;;;13.00;12.60;;;;;24.76;61.65;99725.09;5074807;28;45513;-70
2023/09/04 09:04:56;;;;;;;;;15.25;12.75;;;;;24.80;61.55;99718.47;5074854;28;45440;-70
2023/09/04 09:07:23;;;;;;;;;16.60;13.60;;;;;24.85;62.04;99710.78;5074760;28;45453;-70
2023/09/04 09:09:51;;;;;;;;;13.60;13.40;;;;;24.90;62.16;99714.78;5074328;27;45426;-70
2023/09/04 09:12:16;;;;;;;;;13.80;13.20;;;;;24.96;62.15;99702.63;5074517;27;45423;-70
2023/09/04 09:14:41;;;;;;;;;14.50;13.50;;;;;24.99;62.10;99705.88;5074782;27;45447;-70
2023/09/04 09:17:10;;;;;;;;;13.25;13.25;;;;;25.04;62.03;99708.16;5074475;27;45517;-70
2023/09/04 09:19:37;;;;;;;;;15.00;13.40;;;;;25.09;62.06;99702.38;5075075;28;45363;-70
2023/09/04 09:22:12;;;;;;;;;12.25;12.25;;;;;25.14;61.77;99697.38;5075031;28;45586;-70
2023/09/04 09:24:53;;;;;;;;;18.25;15.25;;;;;25.20;61.45;99697.69;5074372;28;45455;-70
2023/09/04 09:27:45;;;;;;;;;16.00;15.75;;;;;25.28;61.61;99695.16;5073433;28;47527;-72
2023/09/04 09:30:10;;;;;;;;;16.20;16.20;;;;;25.36;61.33;99695.28;5072092;28;45360;-70
2023/09/04 09:32:36;;;;;;;;;13.25;13.25;;;;;25.42;61.30;99690.31;5074460;27;45425;-71
2023/09/04 09:35:02;;;;;;;;;14.75;13.75;;;;;25.47;60.76;99680.78;5074484;28;45511;-70
2023/09/04 09:37:31;;;;;;;;;15.00;13.00;;;;;25.55;60.33;99678.22;5074320;28;45560;-70
2023/09/04 09:39:57;;;;;;;;;16.00;14.00;;;;;25.62;60.07;99678.56;5074132;28;45422;-70
2023/09/04 09:42:25;;;;;;;;;5.50;4.00;;;;;25.67;60.03;99676.25;5073062;28;45434;-70
2023/09/04 09:44:51;;;;;;;;;12.80;11.80;;;;;25.72;59.71;99677.53;5074740;28;45462;-70
2023/09/04 09:47:17;;;;;;;;;12.75;10.75;;;;;25.79;59.99;99668.88;5074475;28;46172;-70
2023/09/04 09:49:43;;;;;;;;;9.25;9.25;;;;;25.86;59.55;99669.97;5073977;28;45428;-70
2023/09/04 09:52:10;;;;;;;;;10.00;10.00;;;;;25.90;59.59;99664.16;5074465;28;45258;-72
2023/09/04 09:54:37;;;;;;;;;12.20;10.80;;;;;25.96;59.20;99660.88;5074044;28;45312;-72
2023/09/04 09:57:07;;;;;;;;;13.80;13.60;;;;;26.03;59.26;99659.28;5073701;28;46191;-70
2023/09/04 09:59:33;;;;;;;;;10.80;10.00;;;;;26.10;58.89;99656.00;5073530;28;45449;-70
2023/09/04 10:02:01;;;;;;;;;10.50;10.50;;;;;26.15;58.75;99657.22;5073627;28;45402;-71
2023/09/04 10:04:29;;;;;;;;;10.00;9.80;;;;;26.23;58.25;99651.94;5073579;28;45570;-72
2023/09/04 10:06:59;;;;;;;;;15.20;14.40;;;;;26.30;58.46;99649.56;5091732;27;46360;-70
2023/09/04 10:09:27;;;;;;;;;14.00;13.20;;;;;26.36;57.46;99647.09;5077164;27;45376;-70
2023/09/04 10:12:09;;;;;;;;;13.60;13.00;;;;;26.41;57.58;99639.38;5075832;28;45404;-72
2023/09/04 10:14:40;;;;;;;;;12.75;11.75;;;;;26.48;57.50;99639.63;5077673;28;45330;-70
2023/09/04 10:17:08;;;;;;;;;19.50;17.25;;;;;26.56;57.39;99623.50;5077196;27;45564;-71
2023/09/04 10:19:39;;;;;;;;;22.20;19.00;;;;;26.62;57.21;99616.66;5077670;27;45354;-70
2023/09/04 10:22:19;;;;;;;;;16.60;15.60;;;;;26.70;57.03;99617.59;5077582;28;45340;-70
2023/09/04 10:25:03;;;;;;;;;14.50;13.75;;;;;26.79;56.48;99609.56;5076978;28;45354;-70
2023/09/04 10:27:32;;;;;;;;;11.20;11.20;;;;;26.84;56.37;99604.53;5075736;28;45407;-70
2023/09/04 10:30:04;;;;;;;;;15.40;13.60;;;;;26.90;55.41;99607.50;5077675;27;45550;-70
2023/09/04 10:32:30;;;;;;;;;12.80;12.00;;;;;26.95;55.65;99604.38;5077671;28;45357;-71
2023/09/04 10:34:56;;;;;;;;;13.00;13.00;;;;;27.03;55.78;99604.41;5077341;28;45342;-70
2023/09/04 10:37:26;;;;;;;;;15.75;12.25;;;;;27.07;55.58;99595.84;5077360;28;45355;-70
2023/09/04 10:39:54;;;;;;;;;13.00;13.00;;;;;27.16;55.70;99601.31;5076652;28;45359;-70
2023/09/04 10:42:23;;;;;;;;;15.80;15.80;;;;;27.21;55.61;99597.16;5077168;28;45388;-70
2023/09/04 10:44:53;;;;;;;;;14.75;14.75;;;;;27.29;55.16;99590.97;5077314;27;45567;-70
2023/09/04 10:47:20;;;;;;;;;13.50;13.50;;;;;27.37;55.15;99589.16;5076989;27;46481;-70
2023/09/04 10:49:46;;;;;;;;;13.80;13.80;;;;;27.42;54.75;99584.13;5077050;27;45446;-71
2023/09/04 10:52:13;;;;;;;;;14.20;13.40;;;;;27.51;55.15;99576.06;5077276;27;45516;-70
2023/09/04 10:54:40;;;;;;;;;15.50;14.75;;;;;27.57;55.04;99575.47;5076749;27;45422;-70
2023/09/04 10:57:10;;;;;;;;;19.25;15.50;;;;;27.62;54.42;99573.13;5077127;27;45656;-70
2023/09/04 10:59:57;;;;;;;;;35.00;30.00;;;;;27.69;54.28;99563.34;5077328;27;45320;-70
2023/09/04 11:02:30;;;;;;;;;14.75;14.00;;;;;27.75;53.77;99569.00;5076639;28;45461;-70
2023/09/04 11:04:57;;;;;;;;;13.00;13.00;;;;;27.81;53.48;99564.81;5075699;28;45428;-70
2023/09/04 11:07:25;;;;;;;;;9.00;9.00;;;;;27.87;53.31;99555.16;5076637;28;46207;-72
2023/09/04 11:10:02;;;;;;;;;13.00;12.60;;;;;27.94;53.03;99558.94;5076022;28;45378;-69
2023/09/04 11:12:30;;;;;;;;;14.60;12.40;;;;;28.01;52.53;99554.53;5076213;28;45395;-71
2023/09/04 11:14:56;;;;;;;;;14.50;14.00;;;;;28.07;52.50;99553.91;5076571;28;45382;-69
2023/09/04 11:17:26;;;;;;;;;13.50;12.00;;;;;28.14;52.19;99558.53;5075177;28;45991;-70